Time;durP1;ratioP1;P1;durP2;ratioP2;P2;SDS_P1;SDS_P2;PMS_P1;PMS_P2;Temp;Humidity;BMP_temperature;BMP_pressure;BME280_temperature;BME280_humidity;BME280_pressure;Samples;Min_cycle;Max_cycle;Signal;HPM_P1;HPM_P2
2023/07/08 00:01:15;;;;;;;7.65;3.63;;;;;;;25.37;38.33;101814.16;4993783;28;20042;-49
2023/07/08 00:03:41;;;;;;;5.68;3.90;;;;;;;25.27;38.64;101811.84;4993316;28;20117;-45
2023/07/08 00:06:17;;;;;;;9.23;3.90;;;;;;;25.34;38.91;101810.72;4993850;28;20343;-49
2023/07/08 00:08:43;;;;;;;7.85;4.20;;;;;;;24.69;39.84;101810.13;4992607;28;20046;-46
2023/07/08 00:11:13;;;;;;;5.97;3.90;;;;;;;25.03;39.29;101802.84;4993446;28;20562;-46
2023/07/08 00:13:38;;;;;;;4.50;3.72;;;;;;;24.95;39.28;101796.88;4993116;28;20049;-46
2023/07/08 00:16:04;;;;;;;7.18;3.80;;;;;;;25.14;38.99;101803.34;4993479;28;20035;-45
2023/07/08 00:18:29;;;;;;;6.75;3.80;;;;;;;25.17;39.12;101799.72;4974878;28;20042;-42
2023/07/08 00:20:54;;;;;;;6.28;4.00;;;;;;;25.07;39.52;101800.97;4993617;28;20154;-42
2023/07/08 00:23:21;;;;;;;4.85;3.83;;;;;;;25.13;39.31;101798.09;4991019;28;20497;-46
2023/07/08 00:25:47;;;;;;;4.90;3.90;;;;;;;24.96;39.69;101799.50;4993378;28;20034;-44
2023/07/08 00:28:19;;;;;;;5.60;4.00;;;;;;;24.91;39.75;101792.56;4993258;28;20046;-44
2023/07/08 00:30:45;;;;;;;8.75;4.15;;;;;;;24.67;40.65;101792.38;4992698;28;20060;-43
2023/07/08 00:33:10;;;;;;;7.70;4.22;;;;;;;24.51;40.51;101801.75;4993772;28;20540;-43
2023/07/08 00:35:39;;;;;;;6.88;4.22;;;;;;;24.51;40.63;101799.09;4993016;28;20034;-48
2023/07/08 00:38:15;;;;;;;7.13;4.22;;;;;;;24.56;41.17;101807.81;4993002;28;20034;-49
2023/07/08 00:40:50;;;;;;;8.13;3.97;;;;;;;24.73;40.66;101801.97;4992367;28;20059;-44
2023/07/08 00:43:16;;;;;;;8.88;4.15;;;;;;;24.60;40.58;101797.91;4993629;28;20031;-43
2023/07/08 00:45:48;;;;;;;6.82;4.10;;;;;;;24.39;41.28;101798.56;4992650;28;20073;-49
2023/07/08 00:48:16;;;;;;;6.97;4.05;;;;;;;24.48;40.75;101792.97;4993054;28;20034;-45
2023/07/08 00:50:42;;;;;;;6.75;4.30;;;;;;;24.38;40.82;101787.03;4991587;28;20049;-45
2023/07/08 00:53:27;;;;;;;5.10;4.03;;;;;;;24.49;40.89;101779.59;4993115;28;20401;-43
2023/07/08 00:55:57;;;;;;;5.65;3.60;;;;;;;24.44;40.98;101770.00;4992162;28;20137;-45
2023/07/08 00:58:25;;;;;;;5.10;3.90;;;;;;;24.32;40.96;101770.34;4992332;28;20034;-46
2023/07/08 01:00:52;;;;;;;7.10;4.40;;;;;;;24.33;41.15;101769.44;4992428;28;20124;-44
2023/07/08 01:03:19;;;;;;;7.78;4.13;;;;;;;24.37;41.21;101765.75;4990273;28;20508;-45
2023/07/08 01:05:46;;;;;;;7.68;3.95;;;;;;;24.07;41.60;101768.34;4992009;28;20042;-45
2023/07/08 01:08:11;;;;;;;5.20;4.10;;;;;;;24.34;40.66;101766.69;4974524;28;20038;-47
2023/07/08 01:10:42;;;;;;;6.85;4.10;;;;;;;24.48;40.60;101767.19;4992014;28;20409;-45
2023/07/08 01:13:09;;;;;;;5.40;3.85;;;;;;;24.38;40.88;101771.03;4991881;28;20129;-50
2023/07/08 01:15:40;;;;;;;6.78;4.03;;;;;;;24.25;41.17;101769.66;4991746;28;20038;-43
2023/07/08 01:18:08;;;;;;;6.75;4.25;;;;;;;24.31;41.06;101776.59;4991723;28;20030;-48
2023/07/08 01:20:33;;;;;;;6.57;4.10;;;;;;;24.36;40.83;101774.66;4989495;28;20069;-50
2023/07/08 01:22:59;;;;;;;5.13;3.80;;;;;;;24.25;41.12;101772.31;4990034;28;20038;-45
2023/07/08 01:25:24;;;;;;;9.55;4.10;;;;;;;24.02;41.72;101766.75;4992449;28;20129;-45
2023/07/08 01:27:54;;;;;;;8.13;4.03;;;;;;;24.04;41.49;101759.56;4992060;28;20397;-43
2023/07/08 01:30:19;;;;;;;5.93;3.90;;;;;;;24.07;41.65;101768.34;4991934;28;20131;-45
2023/07/08 01:32:49;;;;;;;5.90;3.97;;;;;;;23.97;42.28;101769.50;4992295;28;20349;-45
2023/07/08 01:35:15;;;;;;;7.55;4.20;;;;;;;23.73;42.56;101772.84;4992029;28;20552;-49
2023/07/08 01:37:44;;;;;;;5.65;4.05;;;;;;;23.87;42.20;101770.69;4991915;28;20443;-44
2023/07/08 01:40:18;;;;;;;6.10;4.15;;;;;;;23.70;43.15;101771.16;4991566;28;20050;-45
2023/07/08 01:42:44;;;;;;;8.93;4.38;;;;;;;23.83;42.60;101772.59;4991406;28;20041;-46
2023/07/08 01:45:14;;;;;;;6.28;4.30;;;;;;;23.74;42.47;101775.47;4991818;28;20038;-48
2023/07/08 01:47:41;;;;;;;7.43;4.50;;;;;;;;;;4991165;28;20034;-47
2023/07/08 01:50:08;;;;;;;6.28;4.07;;;;;;;23.79;43.09;101768.22;4989627;28;20034;-46
2023/07/08 01:52:33;;;;;;;6.90;4.30;;;;;;;23.84;43.25;101769.00;4991079;28;20031;-45
2023/07/08 01:54:59;;;;;;;6.60;4.03;;;;;;;23.80;42.74;101758.47;4991720;28;20053;-46
2023/07/08 01:57:24;;;;;;;6.00;4.25;;;;;;;23.76;43.25;101755.03;4991761;28;20405;-47
2023/07/08 01:59:50;;;;;;;6.63;4.10;;;;;;;23.67;43.54;101746.38;4990515;28;20042;-48
2023/07/08 02:02:15;;;;;;;6.25;4.22;;;;;;;23.43;43.99;101746.09;4991461;28;20027;-47
2023/07/08 02:04:41;;;;;;;8.38;4.45;;;;;;;23.40;44.27;101740.00;4992352;28;20472;-42
2023/07/08 02:07:06;;;;;;;6.30;4.07;;;;;;;23.57;43.54;101739.56;4992635;28;20149;-48
2023/07/08 02:09:31;;;;;;;9.25;4.57;;;;;;;23.34;44.21;101741.03;4991601;28;20409;-41
2023/07/08 02:11:57;;;;;;;5.53;4.15;;;;;;;23.41;44.00;101739.97;4992337;28;20038;-44
2023/07/08 02:14:22;;;;;;;6.25;4.10;;;;;;;23.42;44.35;101746.16;4992013;28;20038;-49
2023/07/08 02:16:48;;;;;;;6.43;4.20;;;;;;;23.35;44.34;101740.13;4990936;28;20169;-44
2023/07/08 02:19:14;;;;;;;7.93;4.55;;;;;;;23.24;44.72;101731.50;4990645;28;20156;-44
2023/07/08 02:21:39;;;;;;;7.93;4.35;;;;;;;23.21;45.11;101731.59;4990465;28;20030;-46
2023/07/08 02:24:05;;;;;;;6.53;4.20;;;;;;;23.20;45.14;101726.31;4973341;28;20034;-46
2023/07/08 02:26:33;;;;;;;6.13;4.78;;;;;;;23.07;45.60;101728.41;4990637;28;20070;-47
2023/07/08 02:29:00;;;;;;;7.75;4.60;;;;;;;23.15;45.34;101730.88;4990544;28;20038;-48
2023/07/08 02:31:26;;;;;;;7.50;4.85;;;;;;;23.10;45.32;101722.16;4991081;28;20046;-48
2023/07/08 02:33:52;;;;;;;6.63;4.70;;;;;;;22.85;46.11;101729.84;4972985;28;20472;-44
2023/07/08 02:36:18;;;;;;;6.88;4.40;;;;;;;23.03;45.79;101722.31;4991128;28;20049;-50
2023/07/08 02:38:43;;;;;;;7.43;4.28;;;;;;;23.09;45.33;101723.94;4990098;28;20497;-50
2023/07/08 02:41:09;;;;;;;11.55;5.05;;;;;;;22.90;46.07;101719.97;4990443;28;20041;-48
2023/07/08 02:43:34;;;;;;;7.88;4.60;;;;;;;22.87;46.47;101712.91;4990163;28;20081;-43
2023/07/08 02:45:59;;;;;;;8.07;5.03;;;;;;;22.86;45.96;101718.31;4990219;28;20485;-43
2023/07/08 02:48:25;;;;;;;6.05;4.50;;;;;;;23.02;45.71;101720.53;4990136;28;20034;-42
2023/07/08 02:50:50;;;;;;;6.95;4.53;;;;;;;22.88;46.48;101720.00;4989632;28;20065;-48
2023/07/08 02:53:15;;;;;;;8.23;4.57;;;;;;;22.96;45.74;101717.16;4990543;28;20038;-45
2023/07/08 02:55:42;;;;;;;7.75;4.68;;;;;;;22.59;47.10;101712.69;4990151;28;20031;-44
2023/07/08 02:58:09;;;;;;;7.00;4.82;;;;;;;22.87;46.44;101712.91;4990226;28;20038;-43
2023/07/08 03:00:37;;;;;;;7.47;4.50;;;;;;;22.84;46.66;101715.66;4989824;28;20573;-43
2023/07/08 03:03:03;;;;;;;9.20;5.20;;;;;;;22.52;47.79;101715.50;4990441;28;20038;-44
2023/07/08 03:05:30;;;;;;;10.52;5.00;;;;;;;22.63;47.64;101721.44;4990130;28;20457;-44
2023/07/08 03:07:56;;;;;;;8.52;4.70;;;;;;;22.66;47.49;101716.06;4989642;28;20041;-46
2023/07/08 03:10:21;;;;;;;8.52;4.70;;;;;;;22.61;47.37;101708.22;4990910;28;20042;-45
2023/07/08 03:12:46;;;;;;;8.77;4.82;;;;;;;22.39;48.06;101708.72;4956315;28;20038;-42
2023/07/08 03:15:12;;;;;;;6.90;5.30;;;;;;;22.50;47.55;101707.59;4990482;28;20485;-44
2023/07/08 03:17:37;;;;;;;6.25;5.00;;;;;;;22.51;47.68;101704.00;4989514;28;20113;-45
2023/07/08 03:20:05;;;;;;;6.05;4.82;;;;;;;22.48;47.71;101709.41;4989469;28;20045;-48
2023/07/08 03:22:31;;;;;;;6.45;5.07;;;;;;;22.48;47.96;101706.75;4989361;28;20504;-44
2023/07/08 03:24:56;;;;;;;8.60;4.78;;;;;;;22.41;48.19;101713.09;4990024;28;20085;-43
2023/07/08 03:27:21;;;;;;;7.55;4.90;;;;;;;22.34;48.64;101715.91;4990276;28;20645;-43
2023/07/08 03:29:47;;;;;;;9.85;4.97;;;;;;;22.31;48.99;101721.31;4988785;28;20531;-47
2023/07/08 03:32:12;;;;;;;7.57;4.70;;;;;;;22.31;48.84;101727.50;4990003;28;20118;-47
2023/07/08 03:34:38;;;;;;;9.15;5.38;;;;;;;22.28;48.83;101730.22;4989364;28;20077;-42
2023/07/08 03:37:04;;;;;;;7.28;5.32;;;;;;;22.33;48.86;101730.09;4990016;28;20374;-48
2023/07/08 03:39:31;;;;;;;7.82;5.15;;;;;;;22.35;48.78;101731.81;4988843;28;20034;-46
2023/07/08 03:41:57;;;;;;;6.43;4.82;;;;;;;22.29;49.33;101731.97;4989926;28;20084;-47
2023/07/08 03:44:22;;;;;;;7.55;5.32;;;;;;;22.25;49.25;101739.13;4989758;28;20042;-50
2023/07/08 03:46:49;;;;;;;8.32;5.10;;;;;;;22.24;49.46;101731.19;4989387;28;20030;-48
2023/07/08 03:49:21;;;;;;;8.57;5.70;;;;;;;22.20;49.54;101730.34;4989279;28;20505;-43
2023/07/08 03:51:47;;;;;;;6.72;5.25;;;;;;;22.19;49.79;101728.63;4989359;28;20696;-46
2023/07/08 03:54:14;;;;;;;8.30;5.57;;;;;;;22.06;49.90;101727.13;4989806;28;20034;-45
2023/07/08 03:56:39;;;;;;;8.15;4.97;;;;;;;22.18;49.79;101731.31;4989295;28;20030;-52
2023/07/08 03:59:05;;;;;;;7.68;5.28;;;;;;;22.19;50.02;101728.63;4989091;28;20515;-44
2023/07/08 04:01:30;;;;;;;7.07;5.00;;;;;;;22.34;49.77;101726.53;4989187;28;20043;-44
2023/07/08 04:03:58;;;;;;;6.43;5.10;;;;;;;22.27;49.60;101733.75;4989412;28;20089;-44
2023/07/08 04:06:25;;;;;;;10.30;5.38;;;;;;;22.15;50.17;101734.03;4989572;28;20033;-49
2023/07/08 04:08:50;;;;;;;9.68;5.38;;;;;;;22.15;49.96;101729.59;4988841;28;20038;-49
2023/07/08 04:11:19;;;;;;;8.80;4.93;;;;;;;22.23;49.67;101727.66;4989894;28;20034;-48
2023/07/08 04:13:45;;;;;;;8.45;5.45;;;;;;;22.24;49.76;101732.06;4989679;28;20034;-49
2023/07/08 04:16:20;;;;;;;8.88;5.45;;;;;;;22.23;49.97;101735.63;4989784;28;20405;-51
2023/07/08 04:18:46;;;;;;;8.48;5.25;;;;;;;22.38;49.82;101731.78;4989462;28;20042;-44
2023/07/08 04:21:12;;;;;;;7.78;5.25;;;;;;;22.35;50.12;101731.81;4972925;28;20037;-42
2023/07/08 04:23:37;;;;;;;7.82;5.53;;;;;;;22.28;50.01;101732.88;4989697;28;20070;-48
2023/07/08 04:26:03;;;;;;;8.18;5.20;;;;;;;22.44;49.66;101738.75;4992980;28;20034;-46
2023/07/08 04:28:28;;;;;;;8.98;5.47;;;;;;;22.46;49.78;101744.88;4993126;28;20466;-46
2023/07/08 04:30:53;;;;;;;7.68;5.10;;;;;;;22.49;49.67;101737.72;4993347;28;20640;-47
2023/07/08 04:33:19;;;;;;;7.32;5.57;;;;;;;22.40;50.08;101732.59;4993239;28;20035;-52
2023/07/08 04:35:45;;;;;;;8.93;5.68;;;;;;;22.40;49.86;101737.03;4993186;28;20044;-44
2023/07/08 04:38:17;;;;;;;15.02;5.18;;;;;;;22.53;49.57;101734.06;4993035;28;20038;-45
2023/07/08 04:40:42;;;;;;;7.55;5.18;;;;;;;22.63;49.51;101737.38;4992297;28;20069;-46
2023/07/08 04:43:10;;;;;;;8.38;5.57;;;;;;;22.42;49.78;101738.75;4993312;28;20497;-46
2023/07/08 04:45:37;;;;;;;7.75;5.55;;;;;;;22.67;49.01;101736.44;4992788;28;20034;-49
2023/07/08 04:48:08;;;;;;;7.45;5.22;;;;;;;22.59;49.68;101736.59;4992673;28;20405;-44
2023/07/08 04:50:34;;;;;;;7.57;5.40;;;;;;;22.76;49.19;101743.34;4992424;28;20042;-48
2023/07/08 04:52:59;;;;;;;8.27;5.10;;;;;;;22.84;49.20;101739.59;4993020;28;20034;-44
2023/07/08 04:55:25;;;;;;;9.05;4.97;;;;;;;22.95;49.44;101740.22;4993037;28;20081;-49
2023/07/08 04:57:50;;;;;;;7.32;5.40;;;;;;;22.87;49.40;101741.31;4991858;28;20117;-48
2023/07/08 05:00:19;;;;;;;7.13;5.25;;;;;;;22.92;49.54;101744.75;4992453;28;20400;-44
2023/07/08 05:02:44;;;;;;;6.95;5.03;;;;;;;23.11;48.62;101742.50;4992409;28;20035;-45
2023/07/08 05:05:09;;;;;;;8.07;5.10;;;;;;;23.30;48.18;101738.47;4992879;28;20411;-48
2023/07/08 05:07:35;;;;;;;7.60;5.22;;;;;;;23.28;47.97;101740.31;4992349;28;20034;-46
2023/07/08 05:10:00;;;;;;;9.27;5.45;;;;;;;23.30;48.58;101731.34;4992104;28;20031;-46
2023/07/08 05:12:26;;;;;;;7.88;5.22;;;;;;;23.48;47.94;101731.84;4992783;28;20031;-46
2023/07/08 05:14:52;;;;;;;5.85;4.90;;;;;;;23.53;47.71;101735.25;4991743;28;20030;-45
2023/07/08 05:17:17;;;;;;;8.60;4.88;;;;;;;23.75;47.63;101731.97;4992702;28;20044;-47
2023/07/08 05:19:44;;;;;;;10.68;5.05;;;;;;;24.43;47.05;101728.25;4991553;28;20435;-45
2023/07/08 05:22:10;;;;;;;7.68;4.97;;;;;;;25.56;43.57;101723.63;4992171;28;20061;-46
2023/07/08 05:24:36;;;;;;;6.32;4.80;;;;;;;27.08;39.72;101728.50;4992256;28;20050;-52
2023/07/08 05:27:03;;;;;;;6.85;4.28;;;;;;;28.52;36.96;101724.75;4992712;28;20121;-47
2023/07/08 05:29:28;;;;;;;7.05;4.40;;;;;;;29.21;34.69;101716.03;4992345;28;20460;-44
2023/07/08 05:31:54;;;;;;;10.00;4.00;;;;;;;30.56;31.47;101720.38;4991967;28;20102;-49
2023/07/08 05:34:19;;;;;;;5.07;3.95;;;;;;;30.49;32.17;101715.44;4992866;28;20038;-44
2023/07/08 05:36:45;;;;;;;5.30;3.97;;;;;;;30.90;31.02;101718.44;4991381;28;20050;-46
2023/07/08 05:39:10;;;;;;;7.13;4.00;;;;;;;30.93;30.88;101720.94;4991619;28;20519;-53
2023/07/08 05:41:36;;;;;;;8.55;3.95;;;;;;;31.07;29.82;101721.06;4991417;28;20464;-46
2023/07/08 05:44:01;;;;;;;6.25;4.20;;;;;;;31.31;30.19;101716.03;4991690;28;20034;-48
2023/07/08 05:46:26;;;;;;;6.18;3.70;;;;;;;31.40;29.97;101716.34;4974175;28;20089;-49
2023/07/08 05:48:52;;;;;;;5.25;3.80;;;;;;;31.93;28.89;101704.13;4990542;28;20114;-44
2023/07/08 05:51:17;;;;;;;7.72;3.60;;;;;;;32.67;27.72;101714.69;4974143;28;20416;-47
2023/07/08 05:53:43;;;;;;;5.05;3.67;;;;;;;32.98;27.02;101708.97;4991342;28;20038;-52
2023/07/08 05:56:08;;;;;;;7.65;4.15;;;;;;;33.30;26.28;101708.66;4991473;28;20030;-47
2023/07/08 05:58:33;;;;;;;4.82;3.60;;;;;;;33.02;27.17;101709.63;4971324;28;20409;-47
2023/07/08 06:00:59;;;;;;;8.88;3.70;;;;;;;33.49;26.15;101719.03;4990858;28;20097;-48
2023/07/08 06:03:24;;;;;;;7.80;3.97;;;;;;;33.58;26.12;101719.28;4991378;28;20035;-47
2023/07/08 06:05:50;;;;;;;7.43;3.75;;;;;;;33.50;26.13;101724.34;4990816;28;20121;-46
2023/07/08 06:08:15;;;;;;;8.57;3.92;;;;;;;33.10;26.94;101725.31;4990962;28;20516;-43
2023/07/08 06:10:45;;;;;;;6.80;3.70;;;;;;;32.87;28.17;101722.34;4973062;28;20100;-43
2023/07/08 06:13:11;;;;;;;6.03;3.65;;;;;;;33.94;25.88;101714.97;4991177;28;20036;-46
2023/07/08 06:15:37;;;;;;;6.93;4.40;;;;;;;33.16;27.42;101714.97;4990611;28;20042;-47
2023/07/08 06:18:03;;;;;;;5.97;3.70;;;;;;;34.19;25.57;101714.94;4990562;28;20037;-49
2023/07/08 06:20:29;;;;;;;6.45;3.70;;;;;;;34.16;25.85;101715.16;4990850;28;20065;-46
2023/07/08 06:22:54;;;;;;;8.70;3.80;;;;;;;34.71;25.03;101717.44;4990578;28;20062;-52
2023/07/08 06:25:20;;;;;;;5.15;3.30;;;;;;;34.51;25.22;101712.63;4987858;28;20038;-46
2023/07/08 06:27:45;;;;;;;6.25;3.67;;;;;;;35.13;24.41;101707.94;4989388;28;20112;-45
2023/07/08 06:30:11;;;;;;;5.47;3.70;;;;;;;34.70;25.13;101710.31;4990213;28;20053;-53
2023/07/08 06:32:36;;;;;;;4.57;3.35;;;;;;;35.19;24.35;101710.16;4990307;28;20037;-47
2023/07/08 06:35:01;;;;;;;4.93;3.80;;;;;;;33.60;26.41;101714.63;4990924;28;20030;-46
2023/07/08 06:37:27;;;;;;;5.30;3.22;;;;;;;33.91;25.93;101709.78;4990808;28;20049;-51
2023/07/08 06:39:52;;;;;;;5.30;3.72;;;;;;;33.86;25.79;101703.81;4989509;28;20089;-45
2023/07/08 06:42:17;;;;;;;6.07;3.40;;;;;;;34.06;25.53;101708.69;4990466;28;20042;-46
2023/07/08 06:44:50;;;;;;;5.28;3.15;;;;;;;34.63;25.24;101714.44;4989851;28;20535;-47
2023/07/08 06:47:17;;;;;;;7.18;3.55;;;;;;;35.03;25.56;101720.44;4990574;28;20061;-44
2023/07/08 06:49:42;;;;;;;6.53;3.28;;;;;;;36.32;22.49;101712.09;4988776;28;20041;-46
2023/07/08 06:52:07;;;;;;;4.65;3.30;;;;;;;36.17;23.68;101706.91;4990613;28;20496;-47
2023/07/08 06:54:33;;;;;;;7.63;3.50;;;;;;;35.90;23.30;101706.41;4989928;28;20038;-44
2023/07/08 06:56:58;;;;;;;11.30;3.50;;;;;;;35.40;23.60;101707.66;4990395;28;20087;-49
2023/07/08 06:59:23;;;;;;;4.93;3.47;;;;;;;35.82;23.25;101708.88;5010702;23;20129;-44
2023/07/08 07:01:48;;;;;;;9.13;3.67;;;;;;;36.00;23.23;101704.69;4986900;28;20046;-45
2023/07/08 07:04:14;;;;;;;6.43;3.58;;;;;;;35.95;23.27;101696.06;4990601;28;20168;-47
2023/07/08 07:06:39;;;;;;;5.60;3.40;;;;;;;35.52;24.09;101703.13;4988260;28;20137;-48
2023/07/08 07:09:04;;;;;;;6.47;3.40;;;;;;;36.19;23.41;101709.53;4990157;28;20452;-46
2023/07/08 07:11:30;;;;;;;5.53;3.60;;;;;;;36.61;22.71;101707.84;4990124;28;20493;-46
2023/07/08 07:13:55;;;;;;;4.03;2.92;;;;;;;36.88;22.54;101704.72;5001834;28;20441;-48
2023/07/08 07:16:20;;;;;;;4.85;3.22;;;;;;;37.14;22.02;101697.09;5009310;28;20455;-44
2023/07/08 07:18:46;;;;;;;6.35;3.40;;;;;;;36.71;22.72;101700.69;5009306;28;20103;-46
2023/07/08 07:21:11;;;;;;;5.60;3.47;;;;;;;35.85;24.88;101695.06;5009891;28;20076;-50
2023/07/08 07:23:37;;;;;;;6.88;3.10;;;;;;;36.69;23.59;101691.81;5009526;28;20049;-48
2023/07/08 07:26:03;;;;;;;5.60;3.10;;;;;;;37.51;22.29;101689.34;5009953;28;20682;-45
2023/07/08 07:28:28;;;;;;;5.05;3.67;;;;;;;36.53;22.76;101691.34;5009464;28;20063;-48
2023/07/08 07:30:58;;;;;;;7.35;3.40;;;;;;;37.28;22.51;101688.59;5008685;28;20040;-48
2023/07/08 07:33:24;;;;;;;5.75;3.17;;;;;;;37.02;22.02;101698.09;5010010;28;20201;-45
2023/07/08 07:35:49;;;;;;;5.43;3.58;;;;;;;37.05;21.82;101682.38;5009506;28;20532;-45
2023/07/08 07:38:18;;;;;;;6.05;3.53;;;;;;;36.89;22.58;101691.00;5009369;28;20632;-46
2023/07/08 07:40:44;;;;;;;5.38;3.63;;;;;;;36.59;23.10;101686.25;5009189;28;20500;-45
2023/07/08 07:43:10;;;;;;;8.77;3.58;;;;;;;36.46;23.63;101688.25;5008382;28;20092;-45
2023/07/08 07:45:36;;;;;;;5.97;3.63;;;;;;;36.01;23.22;101687.41;5009099;28;20068;-49
2023/07/08 07:48:02;;;;;;;6.72;3.50;;;;;;;36.35;23.97;101680.13;5009162;28;20084;-45
2023/07/08 07:50:28;;;;;;;7.38;3.47;;;;;;;36.82;23.78;101691.63;5009534;28;20038;-46
2023/07/08 07:52:53;;;;;;;7.28;3.63;;;;;;;37.36;22.54;101675.19;5009404;28;20026;-45
2023/07/08 07:55:19;;;;;;;7.65;4.05;;;;;;;36.97;22.43;101672.16;5009413;28;20041;-53
2023/07/08 07:57:45;;;;;;;5.93;3.88;;;;;;;37.16;21.96;101671.47;5009232;28;20062;-45
2023/07/08 08:00:13;;;;;;;6.57;3.88;;;;;;;37.68;21.39;101680.56;5011061;28;20041;-48
2023/07/08 08:02:39;;;;;;;7.60;3.55;;;;;;;37.06;23.23;101678.69;5012981;28;20038;-51
2023/07/08 08:05:05;;;;;;;6.95;3.80;;;;;;;36.24;24.29;101681.97;5013503;28;20105;-46
2023/07/08 08:07:30;;;;;;;6.30;4.00;;;;;;;36.09;23.41;101693.09;5013010;28;20044;-48
2023/07/08 08:09:55;;;;;;;6.82;3.67;;;;;;;37.99;21.43;101695.91;5012701;28;20034;-48
2023/07/08 08:12:24;;;;;;;8.98;4.30;;;;;;;38.10;20.64;101706.72;5013617;28;20034;-47
2023/07/08 08:14:50;;;;;;;7.20;3.70;;;;;;;37.60;22.19;101708.47;5012838;28;20045;-50
2023/07/08 08:17:15;;;;;;;8.02;3.90;;;;;;;37.23;22.38;101704.44;5013374;28;20034;-44
2023/07/08 08:19:40;;;;;;;7.68;3.78;;;;;;;38.03;21.09;101704.69;5012522;28;20107;-46
2023/07/08 08:22:06;;;;;;;5.47;3.83;;;;;;;37.67;21.69;101706.06;5013042;28;20029;-44
2023/07/08 08:24:31;;;;;;;6.07;3.80;;;;;;;37.73;22.57;101714.56;5012808;28;20144;-47
2023/07/08 08:26:56;;;;;;;5.82;3.70;;;;;;;37.42;22.47;101707.31;5013250;28;20162;-49
2023/07/08 08:29:21;;;;;;;5.78;3.63;;;;;;;37.44;22.56;101712.63;5012448;28;20034;-46
2023/07/08 08:31:47;;;;;;;5.60;3.72;;;;;;;37.87;22.40;101712.47;5012438;28;20030;-44
2023/07/08 08:34:12;;;;;;;5.07;3.60;;;;;;;38.36;21.52;101703.53;5013014;28;20026;-47
2023/07/08 08:36:37;;;;;;;5.85;3.50;;;;;;;37.55;22.63;101707.97;5012557;28;20244;-48
2023/07/08 08:39:03;;;;;;;8.90;3.80;;;;;;;37.85;21.84;101703.56;5012510;28;20029;-48
2023/07/08 08:41:34;;;;;;;5.93;3.95;;;;;;;36.49;23.83;101706.13;5012698;28;20128;-48
2023/07/08 08:44:02;;;;;;;7.20;3.85;;;;;;;35.43;25.93;101707.44;5012628;28;20099;-48
2023/07/08 08:46:53;;;;;;;5.90;4.05;;;;;;;34.54;27.27;101707.84;5011615;28;20034;-47
2023/07/08 08:49:30;;;;;;;6.88;4.50;;;;;;;33.62;27.20;101712.66;5011937;28;20034;-44
2023/07/08 08:51:58;;;;;;;8.10;4.60;;;;;;;33.36;28.72;101713.63;5012070;28;20022;-49
2023/07/08 08:54:24;;;;;;;5.93;4.55;;;;;;;32.67;28.90;101711.97;5012672;28;20038;-50
2023/07/08 08:56:55;;;;;;;11.27;4.95;;;;;;;32.33;28.71;101712.38;5012322;28;20042;-44
2023/07/08 08:59:26;;;;;;;6.90;4.28;;;;;;;32.55;29.68;101705.53;5012106;28;20049;-51
2023/07/08 09:01:53;;;;;;;8.00;5.15;;;;;;;32.21;29.35;101701.44;5012170;28;20034;-51
2023/07/08 09:04:29;;;;;;;6.47;4.68;;;;;;;32.80;29.51;101698.53;5013160;28;20034;-43
2023/07/08 09:07:04;;;;;;;8.25;4.82;;;;;;;32.68;29.72;101700.22;5012308;28;20041;-48
2023/07/08 09:09:33;;;;;;;8.20;5.15;;;;;;;32.44;29.22;101694.56;5012134;28;20065;-49
2023/07/08 09:12:05;;;;;;;12.10;5.18;;;;;;;32.16;29.40;101690.06;5011469;28;20033;-48
2023/07/08 09:14:35;;;;;;;9.50;5.00;;;;;;;32.54;29.64;101697.50;5012192;28;20038;-47
2023/07/08 09:17:23;;;;;;;7.60;4.75;;;;;;;32.31;29.99;101693.63;5012292;28;20045;-50
2023/07/08 09:20:03;;;;;;;8.23;4.90;;;;;;;32.45;30.27;101692.72;5011342;28;20192;-47
2023/07/08 09:22:41;;;;;;;6.60;4.95;;;;;;;32.66;29.54;101701.22;5012128;28;20173;-50
2023/07/08 09:25:15;;;;;;;9.20;5.03;;;;;;;32.32;30.84;101710.69;5012136;28;20118;-46
2023/07/08 09:27:40;;;;;;;8.02;4.93;;;;;;;32.46;32.16;101700.72;5011700;28;20497;-48
2023/07/08 09:30:14;;;;;;;6.78;4.80;;;;;;;32.46;30.93;101706.09;5011609;28;20030;-46
2023/07/08 09:32:39;;;;;;;11.50;5.00;;;;;;;32.52;30.85;101704.84;5011545;28;20034;-52
2023/07/08 09:35:07;;;;;;;10.93;5.20;;;;;;;32.51;30.60;101703.97;5012072;28;20129;-49
2023/07/08 09:37:38;;;;;;;8.50;5.18;;;;;;;32.64;30.97;101709.44;5011488;28;20049;-44
2023/07/08 09:40:33;;;;;;;7.32;4.90;;;;;;;32.47;31.29;101705.16;5011145;28;20061;-49
2023/07/08 09:43:02;;;;;;;7.82;5.00;;;;;;;32.58;31.36;101701.72;5004584;28;20041;-49
2023/07/08 09:45:39;;;;;;;7.68;4.80;;;;;;;32.56;31.97;101701.84;5011841;28;20093;-52
2023/07/08 09:48:15;;;;;;;10.65;4.90;;;;;;;32.76;32.46;101703.25;5011203;28;20038;-46
2023/07/08 09:50:44;;;;;;;8.77;4.95;;;;;;;32.51;32.14;101703.97;5011091;28;20428;-47
2023/07/08 09:53:13;;;;;;;9.35;4.72;;;;;;;32.60;30.85;101699.81;5011709;28;20050;-45
2023/07/08 09:55:39;;;;;;;9.20;5.30;;;;;;;32.81;30.74;101698.44;5011153;28;20038;-49
2023/07/08 09:58:05;;;;;;;6.85;4.70;;;;;;;32.94;31.14;101696.63;5011417;28;20034;-45
2023/07/08 10:00:39;;;;;;;7.32;4.90;;;;;;;32.88;32.55;101698.84;5010572;28;20089;-44
2023/07/08 10:03:22;;;;;;;8.48;5.30;;;;;;;32.77;31.67;101702.28;5011258;28;20030;-46
2023/07/08 10:05:48;;;;;;;9.17;5.40;;;;;;;32.43;32.25;101700.06;5011016;28;20077;-45
2023/07/08 10:08:21;;;;;;;8.52;4.70;;;;;;;32.75;32.30;101701.53;5011123;28;20116;-45
2023/07/08 10:10:53;;;;;;;7.30;5.10;;;;;;;32.82;32.68;101696.56;5011019;28;20034;-44
2023/07/08 10:13:40;;;;;;;7.75;5.47;;;;;;;32.77;30.20;101690.63;5012427;28;20042;-44
2023/07/08 10:16:28;;;;;;;8.60;5.50;;;;;;;32.57;30.84;101690.06;5012237;28;20102;-43
2023/07/08 10:18:53;;;;;;;10.02;5.68;;;;;;;32.13;30.86;101690.28;5010259;28;20117;-47
2023/07/08 10:22:07;;;;;;;8.30;5.47;;;;;;;32.73;30.90;101695.38;5010998;28;20128;-47
2023/07/08 10:24:36;;;;;;;8.55;5.45;;;;;;;32.68;31.47;101693.94;5009593;28;20084;-47
2023/07/08 10:27:04;;;;;;;10.13;5.50;;;;;;;32.36;31.31;101699.59;5010823;28;20045;-45
2023/07/08 10:29:47;;;;;;;8.63;5.57;;;;;;;32.86;30.37;101696.28;5010118;28;20425;-50
2023/07/08 10:32:40;;;;;;;7.68;5.10;;;;;;;32.93;32.07;101704.84;5011353;28;20062;-47
2023/07/08 10:35:11;;;;;;;12.35;5.60;;;;;;;32.99;31.13;101697.19;5011063;28;20042;-48
2023/07/08 10:37:43;;;;;;;9.52;5.55;;;;;;;33.28;31.27;101703.34;5010459;28;20412;-48
2023/07/08 10:40:27;;;;;;;8.43;5.70;;;;;;;33.29;30.87;101702.38;5010323;28;20073;-46
2023/07/08 10:43:16;;;;;;;9.75;5.25;;;;;;;33.37;31.91;101701.81;5008913;28;20584;-47
2023/07/08 10:46:03;;;;;;;8.10;5.70;;;;;;;33.53;30.26;101707.91;5010401;28;20129;-46
2023/07/08 10:49:11;;;;;;;10.35;6.03;;;;;;;33.19;29.55;101703.97;5010872;28;20544;-46
2023/07/08 10:51:55;;;;;;;11.48;6.30;;;;;;;33.15;28.90;101706.94;4991212;28;20042;-49
2023/07/08 10:54:51;;;;;;;8.80;5.90;;;;;;;33.44;28.55;101708.53;5011911;28;20033;-43
2023/07/08 10:57:38;;;;;;;8.02;5.72;;;;;;;33.54;27.81;101704.25;5011567;28;20037;-44
2023/07/08 11:00:25;;;;;;;9.23;5.78;;;;;;;33.54;28.32;101706.97;5010792;28;20411;-47
2023/07/08 11:03:03;;;;;;;15.88;6.13;;;;;;;33.53;27.40;101710.63;5010988;28;20392;-46
2023/07/08 11:05:43;;;;;;;8.32;5.80;;;;;;;33.53;27.75;101709.75;5012054;28;20049;-50
2023/07/08 11:08:23;;;;;;;10.43;6.18;;;;;;;33.64;27.14;101708.03;5011068;28;20038;-47
2023/07/08 11:11:06;;;;;;;11.23;5.78;;;;;;;33.67;27.91;101699.69;5009485;28;20567;-49
2023/07/08 11:13:35;;;;;;;8.63;5.75;;;;;;;33.86;27.91;101699.28;5010160;28;20077;-48
2023/07/08 11:16:14;;;;;;;9.38;5.57;;;;;;;33.96;28.45;101696.81;5010667;28;20030;-45
2023/07/08 11:19:06;;;;;;;8.45;5.97;;;;;;;33.88;27.12;101694.63;5009465;28;20037;-48
2023/07/08 11:21:36;;;;;;;9.82;6.10;;;;;;;33.93;27.51;101697.88;5009843;28;20117;-44
2023/07/08 11:24:13;;;;;;;8.15;5.78;;;;;;;33.67;28.46;101699.69;5010306;28;20030;-44
2023/07/08 11:26:53;;;;;;;11.55;6.43;;;;;;;33.88;26.72;101699.19;5010376;28;20038;-50
2023/07/08 11:29:36;;;;;;;12.85;5.80;;;;;;;34.20;27.02;101695.03;5010028;28;20037;-45
2023/07/08 11:32:03;;;;;;;10.30;6.40;;;;;;;34.48;27.64;101697.47;5010073;28;20087;-51